Minden, Nevada
Current Conditions -  °F | °C
As of 6:35 PM on Friday 24 Oct 2014 (Local Time) from KMEV Reporting Station
Clear Clear  
Wind Chill: 68°   Ceiling: Unl
Heat Index: 68°   Visibility: 10mi
Dew Point: 18°   Wind: 29mph
Humidity: 15%   Direction: 200°SSW
Pressure: 29.99"   Gusts: 37mph
Location:  38.95°N, 119.77°W
Report Text: KMEV 250135Z AUTO 20025G32KT 10SM CLR 20/M08 A2999 RMK AO2
Loading
Personal Weather Stations






























Interactive Weather Map
Tropical Storm Tracking
New forecast layout! Learn more

10-Day Weather Forecast

Advertisements
Track Severe Weather on mobile